Time;durP1;ratioP1;P1;durP2;ratioP2;P2;SDS_P1;SDS_P2;PMS_P1;PMS_P2;Temp;Humidity;BMP_temperature;BMP_pressure;BME280_temperature;BME280_humidity;BME280_pressure;Samples;Min_cycle;Max_cycle;Signal;HPM_P1;HPM_P2
2022/10/31 00:01:36;;;;;;;8.07;4.93;;;12.10;99.90;;;;;;4966944;28;20480;-39
2022/10/31 00:04:03;;;;;;;8.70;4.47;;;12.10;99.90;;;;;;4967682;28;20042;-41
2022/10/31 00:06:29;;;;;;;10.20;5.25;;;12.10;99.90;;;;;;4964905;28;20169;-41
2022/10/31 00:09:04;;;;;;;9.85;5.28;;;12.00;99.90;;;;;;4968835;28;20125;-41
2022/10/31 00:11:30;;;;;;;9.35;4.57;;;12.00;99.90;;;;;;4966539;28;20070;-39
2022/10/31 00:14:00;;;;;;;9.80;5.53;;;12.00;99.90;;;;;;4970671;28;20137;-41
2022/10/31 00:16:26;;;;;;;11.55;5.95;;;12.00;99.90;;;;;;4967278;28;20179;-39
2022/10/31 00:18:55;;;;;;;9.77;5.78;;;12.00;99.90;;;;;;4949338;28;20046;-41
2022/10/31 00:21:22;;;;;;;10.02;5.00;;;11.90;99.90;;;;;;4965841;28;20523;-39
2022/10/31 00:23:48;;;;;;;12.57;5.97;;;11.90;99.90;;;;;;4969568;28;20039;-39
2022/10/31 00:26:14;;;;;;;9.07;5.30;;;11.90;99.90;;;;;;4968204;28;20034;-41
2022/10/31 00:28:39;;;;;;;8.90;4.75;;;11.90;99.90;;;;;;4965700;28;20409;-40
2022/10/31 00:31:08;;;;;;;9.25;5.18;;;11.90;99.90;;;;;;4964374;28;20034;-40
2022/10/31 00:33:36;;;;;;;7.00;4.25;;;11.90;99.90;;;;;;4949818;28;20078;-40
2022/10/31 00:36:03;;;;;;;9.93;4.93;;;11.80;99.90;;;;;;4968131;28;20512;-38
2022/10/31 00:38:28;;;;;;;9.00;4.50;;;11.80;99.90;;;;;;4968207;28;20121;-41
2022/10/31 00:40:54;;;;;;;6.75;3.65;;;11.90;99.90;;;;;;4950357;28;20181;-40
2022/10/31 00:43:20;;;;;;;8.48;4.70;;;11.90;99.90;;;;;;4968426;28;20043;-39
2022/10/31 00:45:45;;;;;;;7.72;4.47;;;11.80;99.90;;;;;;4965551;28;20034;-41
2022/10/31 00:48:11;;;;;;;9.55;4.22;;;11.90;99.90;;;;;;4967700;28;20408;-40
2022/10/31 00:50:37;;;;;;;7.88;4.30;;;11.90;99.90;;;;;;4944104;28;20480;-39
2022/10/31 00:53:03;;;;;;;8.10;4.30;;;11.90;99.90;;;;;;4965431;28;20460;-41
2022/10/31 00:55:28;;;;;;;6.07;3.88;;;11.90;99.90;;;;;;4969875;28;20107;-41
2022/10/31 00:57:54;;;;;;;7.78;3.85;;;11.90;99.90;;;;;;4970633;28;20515;-40
2022/10/31 01:00:20;;;;;;;7.45;3.85;;;11.90;99.90;;;;;;4969200;28;20457;-42
2022/10/31 01:02:46;;;;;;;9.23;4.38;;;11.90;99.90;;;;;;4964298;28;20051;-41
2022/10/31 01:05:12;;;;;;;7.63;3.40;;;11.90;99.90;;;;;;4967269;28;21068;-41
2022/10/31 01:07:39;;;;;;;8.65;3.75;;;11.90;99.90;;;;;;4963024;28;20035;-41
2022/10/31 01:10:06;;;;;;;5.00;2.83;;;11.90;99.90;;;;;;4969939;28;20049;-40
2022/10/31 01:12:43;;;;;;;5.55;3.28;;;11.90;99.90;;;;;;4970395;28;20105;-40
2022/10/31 01:15:10;;;;;;;10.75;3.60;;;11.90;99.90;;;;;;4969939;28;20385;-42
2022/10/31 01:17:36;;;;;;;7.45;3.70;;;11.90;99.90;;;;;;4968446;28;20524;-43
2022/10/31 01:20:02;;;;;;;6.90;4.03;;;11.80;99.90;;;;;;4963794;28;20054;-40
2022/10/31 01:22:28;;;;;;;6.80;3.08;;;11.80;99.90;;;;;;4965793;28;20069;-41
2022/10/31 01:24:53;;;;;;;6.82;3.10;;;11.80;99.90;;;;;;4967498;28;20042;-42
2022/10/31 01:27:19;;;;;;;5.75;3.40;;;11.80;99.90;;;;;;4965237;28;20085;-41
2022/10/31 01:29:45;;;;;;;6.38;2.83;;;11.80;99.90;;;;;;4966864;28;20057;-39
2022/10/31 01:32:10;;;;;;;5.82;2.92;;;11.80;99.90;;;;;;4969315;28;20033;-42
2022/10/31 01:34:36;;;;;;;6.30;2.88;;;11.70;99.90;;;;;;4965899;28;20637;-41
2022/10/31 01:37:02;;;;;;;5.97;3.13;;;11.70;99.90;;;;;;4933086;28;20069;-42
2022/10/31 01:39:27;;;;;;;7.18;2.88;;;11.60;99.90;;;;;;4952372;28;20405;-42
2022/10/31 01:41:54;;;;;;;6.40;2.53;;;11.60;99.90;;;;;;4949691;28;20403;-42
2022/10/31 01:44:19;;;;;;;7.22;3.50;;;11.60;99.90;;;;;;4971402;28;20078;-40
2022/10/31 01:46:51;;;;;;;5.60;2.70;;;11.60;99.90;;;;;;4961777;28;20081;-40
2022/10/31 01:49:24;;;;;;;6.63;3.47;;;11.60;99.90;;;;;;4964777;28;20077;-39
2022/10/31 01:51:58;;;;;;;9.90;3.28;;;11.60;99.90;;;;;;4966842;28;20035;-40
2022/10/31 01:54:30;;;;;;;5.25;2.83;;;11.50;99.90;;;;;;4972983;28;20078;-40
2022/10/31 01:56:57;;;;;;;6.03;3.15;;;11.50;99.90;;;;;;4965976;28;20053;-41
2022/10/31 01:59:27;;;;;;;7.68;3.58;;;11.50;99.90;;;;;;4968599;28;20121;-41
2022/10/31 02:01:57;;;;;;;6.68;3.15;;;11.40;99.90;;;;;;4965785;28;20812;-39
2022/10/31 02:04:24;;;;;;;6.32;3.30;;;11.50;99.90;;;;;;4968538;28;20522;-41
2022/10/31 02:06:58;;;;;;;8.13;3.35;;;11.50;99.90;;;;;;4965299;28;20058;-39
2022/10/31 02:09:26;;;;;;;5.78;3.25;;;11.50;99.90;;;;;;4970279;28;20043;-42
2022/10/31 02:11:53;;;;;;;8.27;3.65;;;11.40;99.90;;;;;;4966624;28;20109;-42
2022/10/31 02:14:22;;;;;;;8.18;3.47;;;11.40;99.90;;;;;;4968106;28;20041;-41
2022/10/31 02:16:47;;;;;;;6.88;3.50;;;11.40;99.90;;;;;;4976734;28;20419;-39
2022/10/31 02:19:20;;;;;;;8.38;3.50;;;11.40;99.90;;;;;;4970390;28;20035;-42
2022/10/31 02:22:13;;;;;;;7.75;3.03;;;11.40;99.90;;;;;;4969962;28;20396;-39
2022/10/31 02:25:03;;;;;;;4.68;2.47;;;11.40;99.90;;;;;;4972009;28;20480;-40
2022/10/31 02:27:59;;;;;;;7.45;3.45;;;11.40;99.90;;;;;;4961310;28;20039;-41
2022/10/31 02:30:44;;;;;;;5.43;3.42;;;11.40;99.90;;;;;;4967777;28;20094;-41
2022/10/31 02:33:22;;;;;;;5.63;3.25;;;11.30;99.90;;;;;;4969816;28;20053;-42
2022/10/31 02:36:04;;;;;;;6.00;3.90;;;11.30;99.90;;;;;;4970634;28;20121;-40
2022/10/31 02:38:51;;;;;;;6.68;4.03;;;11.30;99.90;;;;;;4966286;28;20134;-39
2022/10/31 02:41:26;;;;;;;7.47;4.10;;;11.30;99.90;;;;;;4968347;28;20090;-40
2022/10/31 02:44:02;;;;;;;6.85;3.55;;;11.30;99.90;;;;;;4970900;28;20046;-41
2022/10/31 02:47:01;;;;;;;4.53;2.90;;;11.30;99.90;;;;;;4970288;28;20518;-40
2022/10/31 02:50:06;;;;;;;11.10;4.05;;;11.30;99.90;;;;;;4965852;28;20400;-40
2022/10/31 02:52:34;;;;;;;7.50;4.03;;;11.20;99.90;;;;;;4953145;28;20039;-42
2022/10/31 02:55:32;;;;;;;8.27;3.67;;;11.20;99.90;;;;;;4969839;28;20567;-42
2022/10/31 02:58:10;;;;;;;9.38;4.55;;;11.20;99.90;;;;;;4970907;28;20074;-40
2022/10/31 03:00:58;;;;;;;10.60;4.65;;;11.20;99.90;;;;;;4968884;28;20035;-41
2022/10/31 03:03:47;;;;;;;7.65;4.22;;;11.10;99.90;;;;;;4971473;28;20362;-39
2022/10/31 03:06:34;;;;;;;7.47;3.72;;;11.10;99.90;;;;;;4969618;28;20381;-40
2022/10/31 03:09:05;;;;;;;4.72;3.17;;;11.10;99.90;;;;;;4968701;28;20050;-41
2022/10/31 03:11:48;;;;;;;8.27;4.50;;;11.10;99.90;;;;;;4971940;28;20046;-40
2022/10/31 03:14:22;;;;;;;8.18;4.38;;;11.10;99.90;;;;;;4971832;28;20065;-41
2022/10/31 03:16:51;;;;;;;13.48;5.70;;;11.10;99.90;;;;;;4970206;28;20049;-40
2022/10/31 03:19:29;;;;;;;10.35;4.50;;;11.10;99.90;;;;;;4963816;28;20046;-42
2022/10/31 03:22:02;;;;;;;11.27;4.53;;;11.00;99.90;;;;;;4964550;28;20577;-42
2022/10/31 03:24:34;;;;;;;9.02;4.18;;;11.00;99.90;;;;;;4968207;28;20412;-41
2022/10/31 03:27:01;;;;;;;7.65;4.10;;;11.00;99.90;;;;;;4969400;28;20373;-40
2022/10/31 03:29:31;;;;;;;10.38;4.93;;;11.00;99.90;;;;;;4950348;28;20051;-42
2022/10/31 03:32:42;;;;;;;9.35;4.82;;;11.00;99.90;;;;;;4971726;28;20038;-43
2022/10/31 03:35:11;;;;;;;6.32;3.63;;;11.00;99.90;;;;;;4969367;28;20125;-40
2022/10/31 03:37:38;;;;;;;8.85;4.80;;;10.90;99.90;;;;;;4970849;28;20042;-41
2022/10/31 03:40:06;;;;;;;8.05;3.42;;;10.90;99.90;;;;;;4964913;28;20038;-40
2022/10/31 03:42:36;;;;;;;6.60;4.22;;;10.90;99.90;;;;;;4973525;28;20094;-44
2022/10/31 03:45:11;;;;;;;6.32;3.53;;;10.90;99.90;;;;;;4966571;28;20157;-43
2022/10/31 03:47:37;;;;;;;6.70;3.80;;;10.90;99.90;;;;;;4969944;28;20077;-40
2022/10/31 03:50:05;;;;;;;5.80;3.60;;;10.80;99.90;;;;;;4971175;28;20571;-41
2022/10/31 03:52:40;;;;;;;7.38;4.50;;;10.80;99.90;;;;;;4972409;28;20121;-41
2022/10/31 03:55:17;;;;;;;6.53;3.75;;;10.80;99.90;;;;;;4964528;28;20134;-42
2022/10/31 03:58:23;;;;;;;6.47;4.03;;;10.70;99.90;;;;;;4968399;28;20050;-40
2022/10/31 04:00:51;;;;;;;6.07;3.40;;;10.70;99.90;;;;;;4926490;29;20063;-41
2022/10/31 04:03:23;;;;;;;9.88;3.90;;;10.60;99.90;;;;;;4958323;28;20420;-42
2022/10/31 04:05:52;;;;;;;9.68;4.35;;;10.60;99.90;;;;;;4963045;28;20038;-40
2022/10/31 04:08:22;;;;;;;7.03;3.67;;;10.60;99.90;;;;;;4970649;28;20809;-41
2022/10/31 04:10:49;;;;;;;8.23;3.80;;;10.60;99.90;;;;;;4949929;28;20038;-41
2022/10/31 04:13:22;;;;;;;7.38;3.67;;;10.60;99.90;;;;;;4971633;28;20038;-40
2022/10/31 04:15:52;;;;;;;8.30;3.92;;;10.50;99.90;;;;;;4968428;28;20084;-41
2022/10/31 04:18:17;;;;;;;6.30;3.50;;;10.50;99.90;;;;;;4970695;28;20074;-38
2022/10/31 04:20:43;;;;;;;7.22;3.53;;;10.40;99.90;;;;;;4968256;28;20070;-39
2022/10/31 04:23:22;;;;;;;6.47;3.42;;;10.40;99.90;;;;;;4968015;28;20051;-40
2022/10/31 04:25:48;;;;;;;8.25;3.58;;;10.40;99.90;;;;;;4970325;28;20070;-42
2022/10/31 04:28:14;;;;;;;7.95;4.18;;;10.40;99.90;;;;;;4968742;28;20046;-39
2022/10/31 04:30:39;;;;;;;7.35;4.40;;;10.40;99.90;;;;;;4972020;28;20117;-40
2022/10/31 04:33:05;;;;;;;6.95;4.38;;;10.40;99.90;;;;;;4969649;28;20437;-39
2022/10/31 04:35:31;;;;;;;8.90;4.72;;;10.30;99.90;;;;;;4970545;28;20043;-41
2022/10/31 04:37:56;;;;;;;9.93;3.95;;;10.30;99.90;;;;;;4961118;28;20035;-42
2022/10/31 04:40:22;;;;;;;7.03;4.18;;;10.40;99.90;;;;;;4967282;28;20097;-42
2022/10/31 04:42:48;;;;;;;6.63;3.17;;;10.30;99.90;;;;;;4969556;28;20066;-41
2022/10/31 04:45:13;;;;;;;7.40;4.00;;;10.30;99.90;;;;;;4967872;28;20046;-41
2022/10/31 04:47:39;;;;;;;8.98;4.15;;;10.30;99.90;;;;;;4967082;28;20073;-40
2022/10/31 04:50:05;;;;;;;7.43;4.22;;;10.30;99.90;;;;;;4966322;28;20443;-40
2022/10/31 04:52:31;;;;;;;7.65;4.20;;;10.20;99.90;;;;;;4970102;28;20105;-39
2022/10/31 04:54:56;;;;;;;7.45;3.95;;;10.20;99.90;;;;;;4965510;28;20042;-41
2022/10/31 04:57:22;;;;;;;7.18;3.60;;;10.20;99.90;;;;;;4965777;28;20039;-42
2022/10/31 04:59:48;;;;;;;7.07;4.85;;;10.20;99.90;;;;;;4968424;28;20488;-40
2022/10/31 05:02:13;;;;;;;10.90;5.18;;;10.20;99.90;;;;;;4967965;28;20054;-41
2022/10/31 05:04:39;;;;;;;9.85;5.22;;;10.20;99.90;;;;;;4967149;28;21927;-40
2022/10/31 05:07:05;;;;;;;8.77;4.97;;;10.20;99.90;;;;;;4974710;28;20435;-40
2022/10/31 05:09:30;;;;;;;9.93;5.15;;;10.20;99.90;;;;;;4971955;28;20088;-42
2022/10/31 05:11:56;;;;;;;8.32;4.68;;;10.20;99.90;;;;;;4965907;28;20034;-42
2022/10/31 05:14:21;;;;;;;11.80;5.55;;;10.20;99.90;;;;;;4970420;28;20118;-42
2022/10/31 05:16:47;;;;;;;11.10;5.00;;;10.20;99.90;;;;;;4970657;28;20039;-41
2022/10/31 05:19:13;;;;;;;10.80;5.15;;;10.20;99.90;;;;;;4965596;28;20047;-41
2022/10/31 05:21:38;;;;;;;9.00;5.15;;;10.20;99.90;;;;;;4967902;28;20042;-39
2022/10/31 05:24:04;;;;;;;8.75;4.57;;;10.10;99.90;;;;;;4967417;28;20046;-39
2022/10/31 05:26:30;;;;;;;8.02;4.28;;;10.10;99.90;;;;;;4963697;28;20097;-43
2022/10/31 05:28:55;;;;;;;6.53;4.50;;;10.10;99.90;;;;;;4966652;28;20419;-42
2022/10/31 05:31:21;;;;;;;11.43;5.00;;;10.10;99.90;;;;;;4965164;28;20507;-41
2022/10/31 05:33:47;;;;;;;8.85;4.63;;;10.10;99.90;;;;;;4967132;28;20042;-39
2022/10/31 05:36:12;;;;;;;7.97;4.47;;;10.00;99.90;;;;;;4967628;28;20125;-40
2022/10/31 05:38:38;;;;;;;7.07;4.43;;;10.00;99.90;;;;;;4962748;28;20047;-43
2022/10/31 05:41:04;;;;;;;8.15;4.65;;;10.00;99.90;;;;;;4968858;28;20042;-40
2022/10/31 05:43:29;;;;;;;8.35;5.00;;;9.90;99.90;;;;;;4962292;28;20049;-41
2022/10/31 05:45:56;;;;;;;7.57;4.90;;;9.90;99.90;;;;;;4961727;28;20526;-41
2022/10/31 05:48:22;;;;;;;7.10;4.32;;;9.90;99.90;;;;;;4963395;28;20113;-41
2022/10/31 05:50:49;;;;;;;9.05;5.20;;;9.90;99.90;;;;;;4974653;28;20039;-40
2022/10/31 05:53:15;;;;;;;10.07;5.25;;;9.80;99.90;;;;;;4974106;28;20051;-40
2022/10/31 05:55:42;;;;;;;7.75;4.93;;;9.80;99.90;;;;;;4973940;28;20031;-41
2022/10/31 05:58:09;;;;;;;8.85;4.93;;;9.80;99.90;;;;;;4975063;28;20046;-41
2022/10/31 06:00:35;;;;;;;11.52;6.05;;;9.80;99.90;;;;;;4977564;28;20051;-42
2022/10/31 06:03:03;;;;;;;9.30;5.70;;;9.80;99.90;;;;;;4971819;28;20096;-42
2022/10/31 06:05:29;;;;;;;8.27;5.30;;;9.80;99.90;;;;;;4971723;28;20387;-39
2022/10/31 06:07:56;;;;;;;8.65;4.95;;;9.80;99.90;;;;;;4966761;28;20093;-40
2022/10/31 06:10:21;;;;;;;10.45;5.78;;;9.80;99.90;;;;;;4974255;28;20046;-42
2022/10/31 06:12:47;;;;;;;9.45;5.65;;;9.80;99.90;;;;;;4958446;28;20522;-42
2022/10/31 06:15:14;;;;;;;11.30;6.95;;;9.80;99.90;;;;;;4970823;28;20125;-38
2022/10/31 06:17:39;;;;;;;9.85;6.20;;;9.90;99.90;;;;;;4970101;28;20062;-41
2022/10/31 06:20:06;;;;;;;11.32;6.18;;;9.90;99.90;;;;;;4966024;28;20042;-39
2022/10/31 06:22:32;;;;;;;13.90;7.43;;;9.90;99.90;;;;;;4969633;28;20047;-42
2022/10/31 06:24:58;;;;;;;13.95;8.10;;;10.00;99.90;;;;;;4969105;28;20035;-41
2022/10/31 06:27:24;;;;;;;15.90;8.35;;;10.00;99.90;;;;;;4972329;28;20077;-39
2022/10/31 06:29:50;;;;;;;16.08;8.15;;;10.00;99.90;;;;;;4970193;28;20520;-40
2022/10/31 06:32:16;;;;;;;11.07;6.68;;;10.00;99.90;;;;;;4970077;28;20535;-41
2022/10/31 06:34:42;;;;;;;11.45;7.20;;;10.00;99.90;;;;;;4969890;28;21036;-42
2022/10/31 06:37:09;;;;;;;11.23;6.20;;;10.10;99.90;;;;;;4960946;28;20088;-40
2022/10/31 06:39:35;;;;;;;11.65;6.43;;;10.00;99.90;;;;;;4964601;28;20047;-39
2022/10/31 06:42:01;;;;;;;10.63;6.18;;;10.00;99.90;;;;;;4963393;28;20046;-37
2022/10/31 06:44:27;;;;;;;13.30;7.00;;;10.00;99.90;;;;;;4947608;28;20126;-40
2022/10/31 06:46:53;;;;;;;11.00;6.70;;;10.00;99.90;;;;;;4972625;28;20146;-39
2022/10/31 06:49:18;;;;;;;11.38;7.07;;;10.00;99.90;;;;;;4972184;28;20057;-40
2022/10/31 06:51:47;;;;;;;10.68;6.03;;;10.00;99.90;;;;;;4969472;28;20435;-41
2022/10/31 06:54:13;;;;;;;12.75;6.18;;;10.00;99.90;;;;;;4966882;28;20045;-38
2022/10/31 06:56:39;;;;;;;9.68;5.25;;;9.90;99.90;;;;;;4969422;28;20062;-39
2022/10/31 06:59:04;;;;;;;8.82;5.45;;;9.90;99.90;;;;;;4972199;28;20043;-39
2022/10/31 07:01:30;;;;;;;11.02;6.60;;;9.90;99.90;;;;;;4964365;28;20046;-41
2022/10/31 07:03:55;;;;;;;11.57;6.70;;;9.90;99.90;;;;;;4969942;28;20406;-39
2022/10/31 07:06:21;;;;;;;9.57;5.72;;;10.00;99.90;;;;;;4965896;28;20043;-41
2022/10/31 07:08:47;;;;;;;10.55;5.43;;;10.00;99.90;;;;;;4971020;28;20065;-40
2022/10/31 07:11:13;;;;;;;12.07;6.55;;;10.00;99.90;;;;;;4965177;28;20060;-43
2022/10/31 07:13:38;;;;;;;12.20;6.65;;;10.00;99.90;;;;;;4946796;28;20043;-39
2022/10/31 07:16:06;;;;;;;12.13;6.65;;;10.00;99.90;;;;;;4966527;28;20081;-42
2022/10/31 07:18:33;;;;;;;11.43;7.47;;;10.00;99.90;;;;;;4951448;28;20129;-43
2022/10/31 07:20:58;;;;;;;13.02;7.22;;;10.00;99.90;;;;;;4971826;28;20037;-40
2022/10/31 07:23:24;;;;;;;11.18;6.55;;;10.00;99.90;;;;;;4950993;28;20039;-39
2022/10/31 07:25:55;;;;;;;11.63;7.00;;;10.00;99.90;;;;;;4971039;28;20492;-39
2022/10/31 07:28:22;;;;;;;11.65;7.07;;;10.00;99.90;;;;;;4953426;28;20038;-41
2022/10/31 07:30:55;;;;;;;12.70;6.90;;;10.00;99.90;;;;;;4968603;28;20562;-38
2022/10/31 07:33:21;;;;;;;11.00;6.88;;;10.00;99.90;;;;;;4964767;28;20126;-38
2022/10/31 07:35:47;;;;;;;11.20;6.47;;;10.00;99.90;;;;;;4946350;28;20165;-39
2022/10/31 07:38:14;;;;;;;11.25;6.57;;;10.00;99.90;;;;;;4960959;28;20459;-40
2022/10/31 07:40:41;;;;;;;11.45;6.20;;;10.10;99.90;;;;;;4968515;28;20081;-39
2022/10/31 07:43:07;;;;;;;12.60;7.30;;;10.10;99.90;;;;;;4971616;28;20097;-42
2022/10/31 07:45:33;;;;;;;11.52;6.97;;;10.10;99.90;;;;;;4966992;28;20074;-39
2022/10/31 07:47:59;;;;;;;12.43;7.13;;;10.10;99.90;;;;;;4971200;28;20559;-39
2022/10/31 07:50:34;;;;;;;12.20;7.15;;;10.10;99.90;;;;;;4962994;28;20069;-39
2022/10/31 07:53:00;;;;;;;13.40;8.20;;;10.20;99.90;;;;;;4959868;28;20472;-41
2022/10/31 07:55:26;;;;;;;12.10;7.95;;;10.20;99.90;;;;;;4946407;28;20086;-43
2022/10/31 07:57:59;;;;;;;14.95;8.00;;;10.20;99.90;;;;;;4963914;28;20130;-41
2022/10/31 08:00:25;;;;;;;11.80;6.57;;;10.30;99.90;;;;;;4965521;28;20062;-40
2022/10/31 08:03:02;;;;;;;15.48;9.88;;;10.40;99.90;;;;;;4966959;28;20456;-44
2022/10/31 08:05:29;;;;;;;17.80;10.45;;;10.40;99.90;;;;;;4967006;28;20504;-39
2022/10/31 08:07:55;;;;;;;17.70;9.50;;;10.50;99.90;;;;;;4949443;28;20070;-39
2022/10/31 08:10:21;;;;;;;20.05;10.07;;;10.60;99.90;;;;;;4951633;28;20504;-40
2022/10/31 08:12:47;;;;;;;19.40;10.82;;;10.70;99.90;;;;;;4960344;28;20492;-42
2022/10/31 08:15:13;;;;;;;18.58;10.48;;;10.70;99.90;;;;;;4965480;28;20045;-40
2022/10/31 08:17:38;;;;;;;17.80;10.95;;;10.80;99.90;;;;;;4972958;28;20034;-42
2022/10/31 08:20:05;;;;;;;18.08;10.93;;;10.80;99.90;;;;;;4971999;28;20117;-42
2022/10/31 08:22:31;;;;;;;20.35;11.48;;;10.90;99.90;;;;;;4971151;28;20066;-40
2022/10/31 08:24:57;;;;;;;17.08;11.32;;;10.90;99.90;;;;;;4968929;28;20497;-41
2022/10/31 08:27:23;;;;;;;19.67;11.70;;;11.00;99.90;;;;;;4970222;28;20062;-41
2022/10/31 08:29:48;;;;;;;20.77;12.10;;;11.10;99.90;;;;;;4950523;28;20496;-39
2022/10/31 08:32:14;;;;;;;19.77;12.93;;;11.10;99.90;;;;;;4968695;28;20494;-40
2022/10/31 08:34:40;;;;;;;22.27;12.65;;;11.10;99.90;;;;;;4968977;28;20042;-42
2022/10/31 08:37:05;;;;;;;22.10;14.02;;;11.20;99.90;;;;;;4971551;28;20038;-39
2022/10/31 08:39:31;;;;;;;20.02;12.88;;;11.20;99.90;;;;;;4967703;28;20038;-42
2022/10/31 08:41:57;;;;;;;23.77;13.85;;;11.30;99.90;;;;;;4967122;28;20042;-38
2022/10/31 08:44:22;;;;;;;21.15;13.73;;;11.30;99.90;;;;;;4969559;28;20373;-39
2022/10/31 08:46:48;;;;;;;20.67;13.65;;;11.30;99.90;;;;;;4941864;28;20399;-41
2022/10/31 08:49:14;;;;;;;24.23;13.15;;;11.30;99.90;;;;;;4967845;28;20085;-38
2022/10/31 08:51:39;;;;;;;21.50;12.63;;;11.30;99.90;;;;;;4967340;28;20079;-40
2022/10/31 08:54:05;;;;;;;19.80;11.82;;;11.40;99.90;;;;;;4970499;28;20047;-39
2022/10/31 08:56:30;;;;;;;18.77;11.05;;;11.40;99.90;;;;;;4967950;28;20042;-42
2022/10/31 08:58:56;;;;;;;25.45;12.82;;;11.50;99.90;;;;;;4972713;28;20507;-40
2022/10/31 09:01:22;;;;;;;21.83;12.60;;;11.60;99.90;;;;;;4967541;28;20046;-39
2022/10/31 09:03:47;;;;;;;21.42;11.93;;;11.70;99.90;;;;;;4968719;28;20127;-40
2022/10/31 09:06:13;;;;;;;19.63;10.23;;;11.80;99.90;;;;;;4970303;28;20476;-41
2022/10/31 09:08:39;;;;;;;21.05;12.45;;;11.80;99.90;;;;;;4966277;28;20039;-41
2022/10/31 09:11:06;;;;;;;19.25;12.20;;;11.90;99.90;;;;;;4968519;28;20042;-39
2022/10/31 09:13:32;;;;;;;20.27;12.05;;;12.00;99.90;;;;;;4970072;28;20094;-39
2022/10/31 09:16:01;;;;;;;20.88;13.05;;;12.10;99.90;;;;;;4971743;28;20039;-39
2022/10/31 09:18:31;;;;;;;23.38;12.82;;;12.10;99.90;;;;;;4969923;28;20488;-39
2022/10/31 09:20:58;;;;;;;20.67;12.02;;;12.20;99.90;;;;;;4970636;28;20551;-42
2022/10/31 09:23:24;;;;;;;20.45;13.63;;;12.20;99.90;;;;;;4955906;28;20462;-39
2022/10/31 09:25:52;;;;;;;21.15;12.85;;;12.30;99.90;;;;;;4972919;28;20415;-39
2022/10/31 09:28:23;;;;;;;21.85;13.35;;;12.40;99.90;;;;;;4976607;28;20046;-40
2022/10/31 09:30:51;;;;;;;23.00;12.77;;;12.50;99.90;;;;;;4969755;28;20050;-41
2022/10/31 09:33:17;;;;;;;23.23;13.40;;;12.60;99.90;;;;;;4972122;28;20050;-39
2022/10/31 09:35:43;;;;;;;27.45;14.35;;;12.70;99.90;;;;;;4975298;28;20094;-41
2022/10/31 09:38:11;;;;;;;21.73;13.43;;;12.80;99.90;;;;;;4965451;28;20034;-41
2022/10/31 09:40:41;;;;;;;23.27;12.07;;;12.80;99.90;;;;;;4965754;28;20070;-42
2022/10/31 09:43:13;;;;;;;21.55;11.52;;;12.90;99.90;;;;;;4965676;28;20053;-40
2022/10/31 09:45:53;;;;;;;24.17;12.82;;;12.90;99.90;;;;;;4964632;28;20467;-40
2022/10/31 09:48:34;;;;;;;20.77;11.93;;;12.90;99.90;;;;;;4972438;28;20582;-41
2022/10/31 09:51:16;;;;;;;23.83;12.50;;;12.90;99.90;;;;;;4969421;28;20039;-40
2022/10/31 09:53:51;;;;;;;19.27;12.27;;;12.90;99.90;;;;;;4963164;28;20042;-38
2022/10/31 09:56:21;;;;;;;19.52;11.40;;;13.00;99.90;;;;;;4966912;28;20049;-41
2022/10/31 09:58:57;;;;;;;19.58;11.82;;;13.00;99.90;;;;;;4963814;28;20508;-41
2022/10/31 10:01:46;;;;;;;20.85;11.52;;;13.00;99.90;;;;;;4949438;28;20039;-42
2022/10/31 10:04:34;;;;;;;20.98;11.43;;;13.10;99.90;;;;;;4967788;28;20039;-41
2022/10/31 10:07:07;;;;;;;18.38;10.82;;;13.10;99.90;;;;;;4964056;28;20515;-38
2022/10/31 10:09:32;;;;;;;17.85;9.70;;;13.20;99.90;;;;;;4965151;28;20123;-40
2022/10/31 10:12:36;;;;;;;17.80;10.65;;;13.30;99.90;;;;;;4967968;28;20124;-39
2022/10/31 10:15:30;;;;;;;18.15;10.77;;;13.50;99.90;;;;;;4964716;28;20066;-39
2022/10/31 10:18:10;;;;;;;17.40;10.43;;;13.60;99.90;;;;;;4967943;28;20812;-41
2022/10/31 10:20:45;;;;;;;17.98;10.25;;;13.70;99.90;;;;;;4968127;28;20039;-42
2022/10/31 10:23:28;;;;;;;20.50;11.63;;;13.90;99.90;;;;;;4967943;28;20081;-41
2022/10/31 10:26:21;;;;;;;18.45;9.80;;;14.00;99.90;;;;;;4971996;28;20078;-41
2022/10/31 10:29:02;;;;;;;21.17;11.35;;;14.10;99.90;;;;;;4959741;28;20034;-41
2022/10/31 10:31:34;;;;;;;18.20;10.70;;;14.30;99.90;;;;;;4942194;28;20047;-44
2022/10/31 10:34:08;;;;;;;18.67;9.77;;;14.40;99.90;;;;;;4948032;28;20051;-40
2022/10/31 10:36:44;;;;;;;16.80;9.65;;;14.50;99.90;;;;;;4945518;28;20505;-41
2022/10/31 10:39:18;;;;;;;16.05;9.88;;;14.70;99.90;;;;;;4950624;28;20070;-40
2022/10/31 10:50:18;;;;;;;12.95;7.15;;;15.00;99.90;;;;;;4949944;28;20504;-42
2022/10/31 10:53:32;;;;;;;13.90;7.72;;;15.10;99.90;;;;;;4953461;28;20059;-40
2022/10/31 10:56:30;;;;;;;14.75;7.53;;;15.00;99.90;;;;;;4948114;28;20125;-39
2022/10/31 10:58:57;;;;;;;10.88;6.32;;;15.10;99.90;;;;;;4951887;28;20043;-41
2022/10/31 11:01:23;;;;;;;14.57;7.38;;;15.10;99.90;;;;;;4949420;28;20106;-40
2022/10/31 11:03:49;;;;;;;13.77;6.97;;;15.10;99.90;;;;;;4953509;28;20031;-39
2022/10/31 11:06:27;;;;;;;12.40;6.70;;;15.20;99.90;;;;;;4946922;28;20043;-39
2022/10/31 11:08:53;;;;;;;11.23;6.47;;;15.20;99.90;;;;;;4951129;28;20039;-41
2022/10/31 11:11:31;;;;;;;9.10;5.53;;;15.20;99.90;;;;;;4951932;28;20168;-41
2022/10/31 11:14:02;;;;;;;8.98;4.63;;;15.30;99.90;;;;;;4953927;28;20137;-40
2022/10/31 11:16:54;;;;;;;10.43;5.68;;;15.30;99.90;;;;;;4957919;28;20086;-40
2022/10/31 11:19:23;;;;;;;9.17;5.10;;;15.30;99.90;;;;;;4950582;28;20055;-40
2022/10/31 11:21:49;;;;;;;12.55;4.97;;;15.30;99.90;;;;;;4953261;28;20150;-40
2022/10/31 11:24:21;;;;;;;9.18;4.90;;;15.20;99.90;;;;;;4954021;28;20555;-41
2022/10/31 11:26:49;;;;;;;9.85;5.00;;;15.30;99.90;;;;;;4947125;28;20055;-39
2022/10/31 11:29:24;;;;;;;8.60;5.00;;;15.30;99.90;;;;;;4950113;28;20059;-41
2022/10/31 11:31:53;;;;;;;9.90;5.85;;;15.30;99.90;;;;;;4953002;28;20140;-40
2022/10/31 11:34:32;;;;;;;9.60;6.22;;;15.30;99.90;;;;;;4944532;28;20085;-38
2022/10/31 11:37:13;;;;;;;11.23;6.68;;;15.40;99.90;;;;;;4944673;28;20370;-41
2022/10/31 11:39:45;;;;;;;9.02;5.97;;;15.50;99.90;;;;;;4948185;28;20047;-39
2022/10/31 11:42:11;;;;;;;10.15;6.55;;;15.60;99.90;;;;;;4946108;28;20054;-40
2022/10/31 11:44:42;;;;;;;14.05;6.38;;;15.60;99.90;;;;;;4949973;28;20039;-39
2022/10/31 11:47:14;;;;;;;9.30;5.90;;;15.70;99.90;;;;;;4957291;28;20036;-40
2022/10/31 11:49:43;;;;;;;11.77;6.43;;;15.80;99.90;;;;;;4949012;28;20499;-41
2022/10/31 11:52:31;;;;;;;11.07;6.50;;;15.80;99.90;;;;;;4945911;29;20480;-40
2022/10/31 11:55:12;;;;;;;12.98;7.00;;;15.80;99.90;;;;;;4947212;28;20043;-40
2022/10/31 11:57:50;;;;;;;11.57;6.13;;;15.90;99.90;;;;;;4951362;28;20579;-41
2022/10/31 12:00:29;;;;;;;13.90;6.53;;;15.90;99.90;;;;;;4946218;28;20587;-43
2022/10/31 12:03:18;;;;;;;12.10;6.20;;;16.00;99.90;;;;;;4950484;28;20050;-41
2022/10/31 12:05:47;;;;;;;12.25;6.05;;;16.10;99.90;;;;;;4946598;28;20039;-41
2022/10/31 12:08:13;;;;;;;13.82;6.90;;;16.20;99.90;;;;;;4944859;28;20485;-40
2022/10/31 12:11:15;;;;;;;12.45;6.78;;;16.20;99.90;;;;;;4949557;28;20043;-39
2022/10/31 12:14:07;;;;;;;9.68;6.43;;;16.30;99.90;;;;;;4949721;28;20046;-39
2022/10/31 12:17:00;;;;;;;10.07;6.70;;;16.30;99.90;;;;;;4941684;28;20110;-39
2022/10/31 12:19:50;;;;;;;10.55;6.10;;;16.30;99.90;;;;;;4948549;28;20043;-42
2022/10/31 12:22:46;;;;;;;13.63;6.78;;;16.30;99.90;;;;;;4947568;28;20075;-41
2022/10/31 12:25:18;;;;;;;9.82;5.28;;;16.20;99.90;;;;;;4942269;28;20061;-39
2022/10/31 12:28:02;;;;;;;10.90;6.23;;;16.20;99.90;;;;;;4951450;28;20077;-39
2022/10/31 12:30:48;;;;;;;11.20;6.57;;;16.20;99.90;;;;;;4961438;28;20330;-40
2022/10/31 12:33:40;;;;;;;11.93;6.70;;;16.30;99.90;;;;;;4965999;28;20051;-38
2022/10/31 12:36:14;;;;;;;11.15;6.72;;;16.50;99.90;;;;;;4948402;28;20053;-43
2022/10/31 12:38:56;;;;;;;12.13;6.32;;;16.70;99.90;;;;;;4965297;28;20062;-39
2022/10/31 12:41:59;;;;;;;15.77;5.82;;;16.70;99.90;;;;;;4960712;28;20035;-40
2022/10/31 12:44:54;;;;;;;8.60;5.30;;;16.80;99.90;;;;;;4971431;28;20411;-41
2022/10/31 12:47:57;;;;;;;8.55;5.28;;;17.10;99.90;;;;;;4969500;28;20459;-43
2022/10/31 12:50:28;;;;;;;8.63;4.97;;;17.50;99.90;;;;;;4970067;28;20038;-40
2022/10/31 12:53:10;;;;;;;11.60;5.73;;;17.80;99.90;;;;;;4967125;28;20137;-41
2022/10/31 12:56:08;;;;;;;9.63;6.25;;;17.90;99.90;;;;;;4961108;28;20437;-40
2022/10/31 12:58:55;;;;;;;10.57;5.85;;;17.90;99.90;;;;;;4965890;28;20046;-40
2022/10/31 13:01:26;;;;;;;8.40;4.88;;;17.90;99.90;;;;;;4966161;28;20051;-40
2022/10/31 13:03:59;;;;;;;9.75;5.65;;;18.00;99.90;;;;;;4947983;28;20043;-40
2022/10/31 13:06:35;;;;;;;11.48;5.30;;;18.00;99.90;;;;;;4966124;28;20050;-39
2022/10/31 13:09:05;;;;;;;11.48;4.72;;;18.10;99.90;;;;;;4962286;28;20053;-39
2022/10/31 13:11:45;;;;;;;8.05;5.20;;;18.30;99.90;;;;;;4964384;28;20045;-41